Accueil
METAR-TAF:

METAR-TAF

Aéroports :

Indianapolis, Indiana, États-Unis

Aéroport international d'Indianapolis

latitude: 39-43-30N, longitude: 086-16-55W, altitude: 243 m

Observation

Le bulletin a été fait il y a 11 minutes, à 23:54 UTC
Vent 6 kt de nord/nord-est
Température 14°C
Humidité 24%
Pression 1029 hPa
Visibilité: 16.1 km
Nuages fragmentés à une hauteur de 25000 ft

METAR: KIND 202354Z 03006KT 10SM BKN250 14/M06 A3040 RMK AO2 SLP298 T01391056 10156 20133 58006

Heure: 20:05 (00:05 UTC)

Prévision

Le bulletin a été fait il y a 37 minutes, à 23:28 UTC
Prévision valable du 21 à 00 UTC au 22 à 06 UTC
Vent 6 kt de est/nord-est
Visibilité: 10 km
Nuages épars à une hauteur de 25000 ft
A partir de 21 à 2000 UTC
Vent 8 kt de est
Visibilité: 10 km
Nuages fragmentés à une hauteur de 25000 ft

TAF: KIND 202328Z 2100/2206 07006KT P6SM SCT250 FM212000 08008KT P6SM BKN250

Observations et prévisions météorologiques de plus de 4000 aéroports (messages METAR et TAF).

Les stations disponibles sont représentées par des disques jaunes et rouges sur la carte.

Passer la souris dessus pour voir le nom de la station.

Cliquer dessus pour voir les observations et prévisions météorologiques.

Pour changer de carte: cliquez sur les boutons verts avec une croix noire pour zoomer, sur le bouton vert avec un tiret pour effectuer un zoom arrière, ou sur les flèches vertes pour les cartes adjacentes.


METAR-TAF: